sensor_id;sensor_type;location;lat;lon;timestamp;P1;durP1;ratioP1;P2;durP2;ratioP2
32912;SDS011;19266;45.580;-122.680;2022-08-27T00:01:52;1.42;;;1.40;;
32912;SDS011;19266;45.580;-122.680;2022-08-27T00:04:21;1.20;;;1.07;;
32912;SDS011;19266;45.580;-122.680;2022-08-27T00:06:50;1.30;;;1.20;;
32912;SDS011;19266;45.580;-122.680;2022-08-27T00:09:21;1.10;;;1.10;;
32912;SDS011;19266;45.580;-122.680;2022-08-27T00:11:49;2.50;;;1.35;;
32912;SDS011;19266;45.580;-122.680;2022-08-27T00:14:18;2.80;;;1.40;;
32912;SDS011;19266;45.580;-122.680;2022-08-27T00:16:47;1.57;;;1.40;;
32912;SDS011;19266;45.580;-122.680;2022-08-27T00:19:17;1.50;;;1.40;;
32912;SDS011;19266;45.580;-122.680;2022-08-27T00:21:46;1.30;;;1.20;;
32912;SDS011;19266;45.580;-122.680;2022-08-27T00:24:17;2.05;;;1.30;;
32912;SDS011;19266;45.580;-122.680;2022-08-27T00:26:46;2.17;;;1.30;;
32912;SDS011;19266;45.580;-122.680;2022-08-27T00:29:15;2.33;;;1.50;;
32912;SDS011;19266;45.580;-122.680;2022-08-27T00:31:44;6.25;;;1.57;;
32912;SDS011;19266;45.580;-122.680;2022-08-27T00:34:13;1.82;;;1.17;;
32912;SDS011;19266;45.580;-122.680;2022-08-27T00:36:42;14.15;;;2.55;;
32912;SDS011;19266;45.580;-122.680;2022-08-27T00:39:12;2.25;;;1.20;;
32912;SDS011;19266;45.580;-122.680;2022-08-27T00:41:41;2.30;;;1.15;;
32912;SDS011;19266;45.580;-122.680;2022-08-27T00:44:10;1.12;;;1.07;;
32912;SDS011;19266;45.580;-122.680;2022-08-27T00:46:50;45.28;;;3.25;;
32912;SDS011;19266;45.580;-122.680;2022-08-27T00:49:18;7.60;;;1.50;;
32912;SDS011;19266;45.580;-122.680;2022-08-27T00:51:51;1.02;;;0.98;;
32912;SDS011;19266;45.580;-122.680;2022-08-27T00:54:12;1.07;;;1.00;;
32912;SDS011;19266;45.580;-122.680;2022-08-27T00:56:42;12.07;;;1.65;;
32912;SDS011;19266;45.580;-122.680;2022-08-27T00:59:12;1.52;;;1.10;;
32912;SDS011;19266;45.580;-122.680;2022-08-27T01:01:43;1.85;;;1.20;;
32912;SDS011;19266;45.580;-122.680;2022-08-27T01:04:29;10.43;;;1.47;;
32912;SDS011;19266;45.580;-122.680;2022-08-27T01:07:01;2.12;;;1.10;;
32912;SDS011;19266;45.580;-122.680;2022-08-27T01:09:32;1.85;;;0.82;;
32912;SDS011;19266;45.580;-122.680;2022-08-27T01:12:02;5.83;;;0.95;;
32912;SDS011;19266;45.580;-122.680;2022-08-27T01:14:33;0.90;;;0.90;;
32912;SDS011;19266;45.580;-122.680;2022-08-27T01:17:02;2.05;;;0.90;;
32912;SDS011;19266;45.580;-122.680;2022-08-27T01:19:39;0.72;;;0.70;;
32912;SDS011;19266;45.580;-122.680;2022-08-27T01:24:55;0.95;;;0.80;;
32912;SDS011;19266;45.580;-122.680;2022-08-27T01:27:25;1.77;;;0.70;;
32912;SDS011;19266;45.580;-122.680;2022-08-27T01:29:57;1.85;;;0.80;;
32912;SDS011;19266;45.580;-122.680;2022-08-27T01:32:31;1.12;;;0.98;;
32912;SDS011;19266;45.580;-122.680;2022-08-27T01:35:04;0.98;;;0.80;;
32912;SDS011;19266;45.580;-122.680;2022-08-27T01:37:31;1.37;;;0.80;;
32912;SDS011;19266;45.580;-122.680;2022-08-27T01:40:01;4.83;;;1.00;;
32912;SDS011;19266;45.580;-122.680;2022-08-27T01:42:33;1.12;;;0.90;;
32912;SDS011;19266;45.580;-122.680;2022-08-27T01:45:04;2.25;;;0.90;;
32912;SDS011;19266;45.580;-122.680;2022-08-27T01:47:31;1.45;;;1.02;;
32912;SDS011;19266;45.580;-122.680;2022-08-27T01:50:02;1.20;;;0.90;;
32912;SDS011;19266;45.580;-122.680;2022-08-27T01:52:31;0.80;;;0.80;;
32912;SDS011;19266;45.580;-122.680;2022-08-27T01:55:00;2.08;;;1.32;;
32912;SDS011;19266;45.580;-122.680;2022-08-27T01:57:29;1.22;;;1.12;;
32912;SDS011;19266;45.580;-122.680;2022-08-27T01:59:58;0.70;;;0.70;;
32912;SDS011;19266;45.580;-122.680;2022-08-27T02:02:28;0.90;;;0.80;;
32912;SDS011;19266;45.580;-122.680;2022-08-27T02:04:57;0.82;;;0.82;;
32912;SDS011;19266;45.580;-122.680;2022-08-27T02:07:26;3.50;;;0.80;;
32912;SDS011;19266;45.580;-122.680;2022-08-27T02:09:55;0.95;;;0.70;;
32912;SDS011;19266;45.580;-122.680;2022-08-27T02:12:24;0.88;;;0.70;;
32912;SDS011;19266;45.580;-122.680;2022-08-27T02:14:53;3.67;;;0.90;;
32912;SDS011;19266;45.580;-122.680;2022-08-27T02:17:22;0.90;;;0.70;;
32912;SDS011;19266;45.580;-122.680;2022-08-27T02:19:51;2.25;;;0.90;;
32912;SDS011;19266;45.580;-122.680;2022-08-27T02:22:20;3.35;;;0.70;;
32912;SDS011;19266;45.580;-122.680;2022-08-27T02:24:51;8.53;;;1.15;;
32912;SDS011;19266;45.580;-122.680;2022-08-27T02:27:20;4.90;;;0.72;;
32912;SDS011;19266;45.580;-122.680;2022-08-27T02:29:50;16.87;;;1.62;;
32912;SDS011;19266;45.580;-122.680;2022-08-27T02:32:23;6.70;;;1.00;;
32912;SDS011;19266;45.580;-122.680;2022-08-27T02:34:52;2.10;;;0.90;;
32912;SDS011;19266;45.580;-122.680;2022-08-27T02:37:21;3.12;;;0.80;;
32912;SDS011;19266;45.580;-122.680;2022-08-27T02:39:51;1.15;;;0.70;;
32912;SDS011;19266;45.580;-122.680;2022-08-27T02:42:21;2.35;;;0.90;;
32912;SDS011;19266;45.580;-122.680;2022-08-27T02:44:50;2.98;;;1.00;;
32912;SDS011;19266;45.580;-122.680;2022-08-27T02:47:20;2.20;;;0.88;;
32912;SDS011;19266;45.580;-122.680;2022-08-27T02:49:49;2.45;;;0.98;;
32912;SDS011;19266;45.580;-122.680;2022-08-27T02:52:18;5.47;;;1.00;;
32912;SDS011;19266;45.580;-122.680;2022-08-27T02:54:48;2.37;;;0.80;;
32912;SDS011;19266;45.580;-122.680;2022-08-27T02:57:17;2.05;;;0.70;;
32912;SDS011;19266;45.580;-122.680;2022-08-27T02:59:46;6.22;;;0.93;;
32912;SDS011;19266;45.580;-122.680;2022-08-27T03:02:15;5.83;;;1.20;;
32912;SDS011;19266;45.580;-122.680;2022-08-27T03:04:45;3.80;;;1.12;;
32912;SDS011;19266;45.580;-122.680;2022-08-27T03:07:14;2.20;;;0.60;;
32912;SDS011;19266;45.580;-122.680;2022-08-27T03:09:43;0.68;;;0.68;;
32912;SDS011;19266;45.580;-122.680;2022-08-27T03:12:12;3.45;;;0.80;;
32912;SDS011;19266;45.580;-122.680;2022-08-27T03:14:42;26.23;;;2.40;;
32912;SDS011;19266;45.580;-122.680;2022-08-27T03:17:12;2.47;;;0.60;;
32912;SDS011;19266;45.580;-122.680;2022-08-27T03:19:59;1.85;;;0.70;;
32912;SDS011;19266;45.580;-122.680;2022-08-27T03:22:28;1.27;;;0.70;;
32912;SDS011;19266;45.580;-122.680;2022-08-27T03:24:58;0.68;;;0.60;;
32912;SDS011;19266;45.580;-122.680;2022-08-27T03:27:28;0.68;;;0.50;;
32912;SDS011;19266;45.580;-122.680;2022-08-27T03:29:57;0.55;;;0.42;;
32912;SDS011;19266;45.580;-122.680;2022-08-27T03:32:26;1.05;;;0.60;;
32912;SDS011;19266;45.580;-122.680;2022-08-27T03:35:01;0.53;;;0.53;;
32912;SDS011;19266;45.580;-122.680;2022-08-27T03:37:25;0.70;;;0.50;;
32912;SDS011;19266;45.580;-122.680;2022-08-27T03:39:55;2.27;;;0.57;;
32912;SDS011;19266;45.580;-122.680;2022-08-27T03:42:24;0.60;;;0.45;;
32912;SDS011;19266;45.580;-122.680;2022-08-27T03:44:53;0.50;;;0.50;;
32912;SDS011;19266;45.580;-122.680;2022-08-27T03:47:22;3.02;;;0.65;;
32912;SDS011;19266;45.580;-122.680;2022-08-27T03:49:52;1.85;;;0.50;;
32912;SDS011;19266;45.580;-122.680;2022-08-27T03:52:21;0.80;;;0.50;;
32912;SDS011;19266;45.580;-122.680;2022-08-27T03:54:50;1.12;;;0.40;;
32912;SDS011;19266;45.580;-122.680;2022-08-27T03:57:19;0.72;;;0.50;;
32912;SDS011;19266;45.580;-122.680;2022-08-27T03:59:48;0.53;;;0.50;;
32912;SDS011;19266;45.580;-122.680;2022-08-27T04:02:17;0.50;;;0.50;;
32912;SDS011;19266;45.580;-122.680;2022-08-27T04:04:47;1.47;;;0.70;;
32912;SDS011;19266;45.580;-122.680;2022-08-27T04:07:18;2.80;;;0.80;;
32912;SDS011;19266;45.580;-122.680;2022-08-27T04:09:46;2.62;;;0.42;;
32912;SDS011;19266;45.580;-122.680;2022-08-27T04:12:15;0.40;;;0.40;;
32912;SDS011;19266;45.580;-122.680;2022-08-27T04:14:45;0.62;;;0.40;;
32912;SDS011;19266;45.580;-122.680;2022-08-27T04:17:14;0.85;;;0.37;;
32912;SDS011;19266;45.580;-122.680;2022-08-27T04:19:45;0.30;;;0.30;;
32912;SDS011;19266;45.580;-122.680;2022-08-27T04:22:13;0.60;;;0.60;;
32912;SDS011;19266;45.580;-122.680;2022-08-27T04:24:43;2.00;;;0.55;;
32912;SDS011;19266;45.580;-122.680;2022-08-27T04:27:12;0.53;;;0.37;;
32912;SDS011;19266;45.580;-122.680;2022-08-27T04:29:42;1.15;;;0.40;;
32912;SDS011;19266;45.580;-122.680;2022-08-27T04:32:12;2.12;;;0.57;;
32912;SDS011;19266;45.580;-122.680;2022-08-27T04:34:41;0.47;;;0.47;;
32912;SDS011;19266;45.580;-122.680;2022-08-27T04:37:10;0.68;;;0.50;;
32912;SDS011;19266;45.580;-122.680;2022-08-27T04:39:39;0.50;;;0.50;;
32912;SDS011;19266;45.580;-122.680;2022-08-27T04:42:08;0.50;;;0.50;;
32912;SDS011;19266;45.580;-122.680;2022-08-27T04:44:37;1.05;;;0.85;;
32912;SDS011;19266;45.580;-122.680;2022-08-27T04:47:07;1.77;;;0.70;;
32912;SDS011;19266;45.580;-122.680;2022-08-27T04:49:36;2.20;;;0.45;;
32912;SDS011;19266;45.580;-122.680;2022-08-27T04:52:05;2.08;;;0.40;;
32912;SDS011;19266;45.580;-122.680;2022-08-27T04:54:34;1.25;;;0.50;;
32912;SDS011;19266;45.580;-122.680;2022-08-27T04:57:06;3.67;;;0.90;;
32912;SDS011;19266;45.580;-122.680;2022-08-27T04:59:35;17.32;;;1.67;;
32912;SDS011;19266;45.580;-122.680;2022-08-27T05:02:05;26.93;;;2.45;;
32912;SDS011;19266;45.580;-122.680;2022-08-27T05:04:37;13.45;;;1.72;;
32912;SDS011;19266;45.580;-122.680;2022-08-27T05:07:06;3.70;;;0.82;;
32912;SDS011;19266;45.580;-122.680;2022-08-27T05:09:36;4.55;;;0.70;;
32912;SDS011;19266;45.580;-122.680;2022-08-27T05:12:05;0.80;;;0.80;;
32912;SDS011;19266;45.580;-122.680;2022-08-27T05:14:37;2.00;;;0.70;;
32912;SDS011;19266;45.580;-122.680;2022-08-27T05:17:05;2.15;;;0.60;;
32912;SDS011;19266;45.580;-122.680;2022-08-27T05:19:34;0.50;;;0.50;;
32912;SDS011;19266;45.580;-122.680;2022-08-27T05:22:03;0.62;;;0.60;;
32912;SDS011;19266;45.580;-122.680;2022-08-27T05:24:34;0.50;;;0.50;;
32912;SDS011;19266;45.580;-122.680;2022-08-27T05:27:03;0.60;;;0.60;;
32912;SDS011;19266;45.580;-122.680;2022-08-27T05:29:32;1.00;;;0.80;;
32912;SDS011;19266;45.580;-122.680;2022-08-27T05:32:01;0.90;;;0.70;;
32912;SDS011;19266;45.580;-122.680;2022-08-27T05:34:31;1.67;;;0.60;;
32912;SDS011;19266;45.580;-122.680;2022-08-27T05:37:02;0.30;;;0.30;;
32912;SDS011;19266;45.580;-122.680;2022-08-27T05:39:31;1.07;;;0.30;;
32912;SDS011;19266;45.580;-122.680;2022-08-27T05:42:02;0.75;;;0.30;;
32912;SDS011;19266;45.580;-122.680;2022-08-27T05:44:31;5.67;;;0.80;;
32912;SDS011;19266;45.580;-122.680;2022-08-27T05:47:01;2.67;;;0.40;;
32912;SDS011;19266;45.580;-122.680;2022-08-27T05:49:30;6.30;;;0.80;;
32912;SDS011;19266;45.580;-122.680;2022-08-27T05:52:00;0.72;;;0.50;;
32912;SDS011;19266;45.580;-122.680;2022-08-27T05:54:29;0.20;;;0.20;;
32912;SDS011;19266;45.580;-122.680;2022-08-27T05:57:00;0.90;;;0.20;;
32912;SDS011;19266;45.580;-122.680;2022-08-27T05:59:31;0.23;;;0.20;;
32912;SDS011;19266;45.580;-122.680;2022-08-27T06:02:17;0.20;;;0.20;;
32912;SDS011;19266;45.580;-122.680;2022-08-27T06:04:47;0.53;;;0.20;;
32912;SDS011;19266;45.580;-122.680;2022-08-27T06:07:17;0.20;;;0.20;;
32912;SDS011;19266;45.580;-122.680;2022-08-27T06:09:46;0.10;;;0.10;;
32912;SDS011;19266;45.580;-122.680;2022-08-27T06:12:15;0.42;;;0.13;;
32912;SDS011;19266;45.580;-122.680;2022-08-27T06:14:46;1.98;;;0.28;;
32912;SDS011;19266;45.580;-122.680;2022-08-27T06:17:15;1.15;;;0.30;;
32912;SDS011;19266;45.580;-122.680;2022-08-27T06:19:44;0.42;;;0.40;;
32912;SDS011;19266;45.580;-122.680;2022-08-27T06:22:13;0.75;;;0.20;;
32912;SDS011;19266;45.580;-122.680;2022-08-27T06:24:42;0.23;;;0.20;;
32912;SDS011;19266;45.580;-122.680;2022-08-27T06:27:13;0.30;;;0.30;;
32912;SDS011;19266;45.580;-122.680;2022-08-27T06:29:42;5.15;;;0.45;;
32912;SDS011;19266;45.580;-122.680;2022-08-27T06:32:12;0.40;;;0.35;;
32912;SDS011;19266;45.580;-122.680;2022-08-27T06:34:41;0.47;;;0.20;;
32912;SDS011;19266;45.580;-122.680;2022-08-27T06:37:10;0.35;;;0.20;;
32912;SDS011;19266;45.580;-122.680;2022-08-27T06:39:40;0.23;;;0.23;;
32912;SDS011;19266;45.580;-122.680;2022-08-27T06:42:09;0.30;;;0.30;;
32912;SDS011;19266;45.580;-122.680;2022-08-27T06:44:39;1.50;;;0.40;;
32912;SDS011;19266;45.580;-122.680;2022-08-27T06:47:08;6.20;;;0.70;;
32912;SDS011;19266;45.580;-122.680;2022-08-27T06:49:38;0.28;;;0.23;;
32912;SDS011;19266;45.580;-122.680;2022-08-27T06:52:07;2.12;;;0.50;;
32912;SDS011;19266;45.580;-122.680;2022-08-27T06:54:36;1.37;;;0.40;;
32912;SDS011;19266;45.580;-122.680;2022-08-27T06:57:06;0.55;;;0.50;;
32912;SDS011;19266;45.580;-122.680;2022-08-27T06:59:36;1.02;;;0.40;;
32912;SDS011;19266;45.580;-122.680;2022-08-27T07:02:07;1.55;;;0.40;;
32912;SDS011;19266;45.580;-122.680;2022-08-27T07:04:37;6.40;;;0.75;;
32912;SDS011;19266;45.580;-122.680;2022-08-27T07:07:06;15.58;;;1.15;;
32912;SDS011;19266;45.580;-122.680;2022-08-27T07:09:36;7.47;;;0.78;;
32912;SDS011;19266;45.580;-122.680;2022-08-27T07:12:05;1.02;;;0.53;;
32912;SDS011;19266;45.580;-122.680;2022-08-27T07:14:36;0.50;;;0.50;;
32912;SDS011;19266;45.580;-122.680;2022-08-27T07:17:05;2.00;;;0.60;;
32912;SDS011;19266;45.580;-122.680;2022-08-27T07:19:35;2.02;;;0.60;;
32912;SDS011;19266;45.580;-122.680;2022-08-27T07:22:05;0.72;;;0.50;;
32912;SDS011;19266;45.580;-122.680;2022-08-27T07:24:34;1.00;;;0.72;;
32912;SDS011;19266;45.580;-122.680;2022-08-27T07:27:04;1.47;;;0.60;;
32912;SDS011;19266;45.580;-122.680;2022-08-27T07:29:34;0.45;;;0.45;;
32912;SDS011;19266;45.580;-122.680;2022-08-27T07:32:03;4.37;;;1.00;;
32912;SDS011;19266;45.580;-122.680;2022-08-27T07:34:32;1.00;;;0.60;;
32912;SDS011;19266;45.580;-122.680;2022-08-27T07:37:01;0.40;;;0.40;;
32912;SDS011;19266;45.580;-122.680;2022-08-27T07:39:31;1.45;;;0.55;;
32912;SDS011;19266;45.580;-122.680;2022-08-27T07:42:01;1.72;;;0.50;;
32912;SDS011;19266;45.580;-122.680;2022-08-27T07:44:48;0.75;;;0.40;;
32912;SDS011;19266;45.580;-122.680;2022-08-27T07:47:17;4.50;;;0.50;;
32912;SDS011;19266;45.580;-122.680;2022-08-27T07:49:46;1.55;;;0.50;;
32912;SDS011;19266;45.580;-122.680;2022-08-27T07:52:15;0.42;;;0.30;;
32912;SDS011;19266;45.580;-122.680;2022-08-27T07:54:44;0.62;;;0.50;;
32912;SDS011;19266;45.580;-122.680;2022-08-27T07:57:13;1.55;;;0.53;;
32912;SDS011;19266;45.580;-122.680;2022-08-27T07:59:43;0.60;;;0.60;;
32912;SDS011;19266;45.580;-122.680;2022-08-27T08:02:12;2.05;;;0.60;;
32912;SDS011;19266;45.580;-122.680;2022-08-27T08:04:42;0.98;;;0.62;;
32912;SDS011;19266;45.580;-122.680;2022-08-27T08:07:12;9.35;;;0.80;;
32912;SDS011;19266;45.580;-122.680;2022-08-27T08:09:41;2.83;;;0.80;;
32912;SDS011;19266;45.580;-122.680;2022-08-27T08:12:10;0.82;;;0.60;;
32912;SDS011;19266;45.580;-122.680;2022-08-27T08:14:39;1.00;;;0.53;;
32912;SDS011;19266;45.580;-122.680;2022-08-27T08:17:08;0.60;;;0.50;;
32912;SDS011;19266;45.580;-122.680;2022-08-27T08:19:37;3.50;;;0.50;;
32912;SDS011;19266;45.580;-122.680;2022-08-27T08:22:07;0.65;;;0.50;;
32912;SDS011;19266;45.580;-122.680;2022-08-27T08:24:36;1.05;;;0.50;;
32912;SDS011;19266;45.580;-122.680;2022-08-27T08:27:06;1.42;;;0.50;;
32912;SDS011;19266;45.580;-122.680;2022-08-27T08:29:37;0.82;;;0.50;;
32912;SDS011;19266;45.580;-122.680;2022-08-27T08:32:06;0.95;;;0.40;;
32912;SDS011;19266;45.580;-122.680;2022-08-27T08:34:35;0.30;;;0.20;;
32912;SDS011;19266;45.580;-122.680;2022-08-27T08:37:05;0.75;;;0.42;;
32912;SDS011;19266;45.580;-122.680;2022-08-27T08:39:37;0.50;;;0.40;;
32912;SDS011;19266;45.580;-122.680;2022-08-27T08:42:17;0.40;;;0.40;;
32912;SDS011;19266;45.580;-122.680;2022-08-27T08:44:42;0.30;;;0.30;;
32912;SDS011;19266;45.580;-122.680;2022-08-27T08:47:12;0.70;;;0.42;;
32912;SDS011;19266;45.580;-122.680;2022-08-27T08:49:43;0.30;;;0.30;;
32912;SDS011;19266;45.580;-122.680;2022-08-27T08:54:44;0.78;;;0.60;;
32912;SDS011;19266;45.580;-122.680;2022-08-27T08:57:22;0.70;;;0.20;;
32912;SDS011;19266;45.580;-122.680;2022-08-27T09:00:00;0.82;;;0.40;;
32912;SDS011;19266;45.580;-122.680;2022-08-27T09:02:21;0.98;;;0.60;;
32912;SDS011;19266;45.580;-122.680;2022-08-27T09:04:50;0.60;;;0.40;;
32912;SDS011;19266;45.580;-122.680;2022-08-27T09:07:29;0.57;;;0.47;;
32912;SDS011;19266;45.580;-122.680;2022-08-27T09:09:56;0.60;;;0.50;;
32912;SDS011;19266;45.580;-122.680;2022-08-27T09:12:27;2.20;;;0.53;;
32912;SDS011;19266;45.580;-122.680;2022-08-27T09:15:08;0.47;;;0.40;;
32912;SDS011;19266;45.580;-122.680;2022-08-27T09:17:27;0.40;;;0.40;;
32912;SDS011;19266;45.580;-122.680;2022-08-27T09:19:56;0.60;;;0.40;;
32912;SDS011;19266;45.580;-122.680;2022-08-27T09:22:41;0.98;;;0.40;;
32912;SDS011;19266;45.580;-122.680;2022-08-27T09:27:26;0.98;;;0.53;;
32912;SDS011;19266;45.580;-122.680;2022-08-27T09:29:55;0.40;;;0.37;;
32912;SDS011;19266;45.580;-122.680;2022-08-27T09:32:26;0.40;;;0.40;;
32912;SDS011;19266;45.580;-122.680;2022-08-27T09:34:56;0.72;;;0.40;;
32912;SDS011;19266;45.580;-122.680;2022-08-27T09:37:30;1.47;;;0.47;;
32912;SDS011;19266;45.580;-122.680;2022-08-27T09:40:06;0.80;;;0.50;;
32912;SDS011;19266;45.580;-122.680;2022-08-27T09:42:37;0.75;;;0.50;;
32912;SDS011;19266;45.580;-122.680;2022-08-27T09:45:10;2.50;;;0.60;;
32912;SDS011;19266;45.580;-122.680;2022-08-27T09:47:46;1.10;;;0.45;;
32912;SDS011;19266;45.580;-122.680;2022-08-27T09:50:16;1.35;;;0.60;;
32912;SDS011;19266;45.580;-122.680;2022-08-27T09:52:50;1.85;;;0.60;;
32912;SDS011;19266;45.580;-122.680;2022-08-27T09:55:27;1.82;;;0.85;;
32912;SDS011;19266;45.580;-122.680;2022-08-27T09:57:56;2.27;;;0.80;;
32912;SDS011;19266;45.580;-122.680;2022-08-27T10:00:37;2.77;;;0.90;;
32912;SDS011;19266;45.580;-122.680;2022-08-27T10:02:58;2.02;;;0.78;;
32912;SDS011;19266;45.580;-122.680;2022-08-27T10:05:30;2.67;;;1.00;;
32912;SDS011;19266;45.580;-122.680;2022-08-27T10:08:05;2.27;;;1.35;;
32912;SDS011;19266;45.580;-122.680;2022-08-27T10:13:08;3.12;;;1.50;;
32912;SDS011;19266;45.580;-122.680;2022-08-27T10:15:34;3.95;;;1.22;;
32912;SDS011;19266;45.580;-122.680;2022-08-27T10:18:14;2.62;;;1.40;;
32912;SDS011;19266;45.580;-122.680;2022-08-27T10:20:37;2.87;;;1.70;;
32912;SDS011;19266;45.580;-122.680;2022-08-27T10:23:28;4.33;;;1.67;;
32912;SDS011;19266;45.580;-122.680;2022-08-27T10:31:15;4.67;;;1.32;;
32912;SDS011;19266;45.580;-122.680;2022-08-27T10:36:22;3.12;;;1.60;;
32912;SDS011;19266;45.580;-122.680;2022-08-27T10:38:48;2.75;;;1.47;;
32912;SDS011;19266;45.580;-122.680;2022-08-27T10:41:25;5.10;;;1.80;;
32912;SDS011;19266;45.580;-122.680;2022-08-27T10:49:38;6.20;;;1.35;;
32912;SDS011;19266;45.580;-122.680;2022-08-27T10:52:10;2.22;;;1.65;;
32912;SDS011;19266;45.580;-122.680;2022-08-27T10:54:45;4.08;;;1.98;;
32912;SDS011;19266;45.580;-122.680;2022-08-27T11:02:32;3.50;;;1.55;;
32912;SDS011;19266;45.580;-122.680;2022-08-27T11:05:05;4.72;;;1.80;;
32912;SDS011;19266;45.580;-122.680;2022-08-27T11:07:35;6.30;;;1.92;;
32912;SDS011;19266;45.580;-122.680;2022-08-27T11:10:20;3.92;;;1.60;;
32912;SDS011;19266;45.580;-122.680;2022-08-27T11:12:53;5.42;;;1.90;;
32912;SDS011;19266;45.580;-122.680;2022-08-27T11:15:30;5.35;;;1.82;;
32912;SDS011;19266;45.580;-122.680;2022-08-27T11:17:59;5.65;;;1.70;;
32912;SDS011;19266;45.580;-122.680;2022-08-27T11:20:29;4.15;;;2.05;;
32912;SDS011;19266;45.580;-122.680;2022-08-27T11:25:53;3.90;;;1.55;;
32912;SDS011;19266;45.580;-122.680;2022-08-27T11:27:58;4.55;;;1.80;;
32912;SDS011;19266;45.580;-122.680;2022-08-27T11:33:13;4.92;;;1.90;;
32912;SDS011;19266;45.580;-122.680;2022-08-27T11:36:44;5.75;;;1.72;;
32912;SDS011;19266;45.580;-122.680;2022-08-27T11:38:27;4.45;;;1.72;;
32912;SDS011;19266;45.580;-122.680;2022-08-27T11:40:58;6.83;;;2.25;;
32912;SDS011;19266;45.580;-122.680;2022-08-27T11:43:27;6.58;;;2.12;;
32912;SDS011;19266;45.580;-122.680;2022-08-27T11:45:58;5.10;;;1.87;;
32912;SDS011;19266;45.580;-122.680;2022-08-27T11:48:28;5.65;;;1.90;;
32912;SDS011;19266;45.580;-122.680;2022-08-27T11:50:58;4.83;;;2.10;;
32912;SDS011;19266;45.580;-122.680;2022-08-27T11:53:39;6.30;;;1.90;;
32912;SDS011;19266;45.580;-122.680;2022-08-27T11:56:11;5.20;;;1.98;;
32912;SDS011;19266;45.580;-122.680;2022-08-27T11:58:42;4.87;;;2.20;;
32912;SDS011;19266;45.580;-122.680;2022-08-27T12:01:28;6.65;;;2.35;;
32912;SDS011;19266;45.580;-122.680;2022-08-27T12:04:00;5.92;;;1.90;;
32912;SDS011;19266;45.580;-122.680;2022-08-27T12:06:38;4.00;;;1.90;;
32912;SDS011;19266;45.580;-122.680;2022-08-27T12:09:12;5.87;;;1.98;;
32912;SDS011;19266;45.580;-122.680;2022-08-27T12:11:48;4.40;;;2.10;;
32912;SDS011;19266;45.580;-122.680;2022-08-27T12:14:33;3.95;;;1.82;;
32912;SDS011;19266;45.580;-122.680;2022-08-27T12:22:19;4.85;;;2.27;;
32912;SDS011;19266;45.580;-122.680;2022-08-27T12:24:47;6.55;;;2.15;;
32912;SDS011;19266;45.580;-122.680;2022-08-27T12:29:58;7.53;;;2.30;;
32912;SDS011;19266;45.580;-122.680;2022-08-27T12:32:32;4.87;;;1.95;;
32912;SDS011;19266;45.580;-122.680;2022-08-27T12:35:09;4.97;;;1.92;;
32912;SDS011;19266;45.580;-122.680;2022-08-27T12:37:35;7.15;;;2.30;;
32912;SDS011;19266;45.580;-122.680;2022-08-27T12:40:11;7.78;;;2.00;;
32912;SDS011;19266;45.580;-122.680;2022-08-27T12:42:35;3.95;;;1.87;;
32912;SDS011;19266;45.580;-122.680;2022-08-27T12:45:05;5.47;;;1.90;;
32912;SDS011;19266;45.580;-122.680;2022-08-27T12:47:38;5.05;;;1.85;;
32912;SDS011;19266;45.580;-122.680;2022-08-27T12:50:09;4.58;;;2.20;;
32912;SDS011;19266;45.580;-122.680;2022-08-27T12:58:12;3.65;;;1.70;;
32912;SDS011;19266;45.580;-122.680;2022-08-27T13:00:55;7.10;;;2.05;;
32912;SDS011;19266;45.580;-122.680;2022-08-27T13:03:31;5.12;;;1.90;;
32912;SDS011;19266;45.580;-122.680;2022-08-27T13:06:01;4.47;;;1.98;;
32912;SDS011;19266;45.580;-122.680;2022-08-27T13:08:31;4.35;;;2.25;;
32912;SDS011;19266;45.580;-122.680;2022-08-27T13:11:07;4.08;;;2.10;;
32912;SDS011;19266;45.580;-122.680;2022-08-27T13:13:37;5.60;;;2.00;;
32912;SDS011;19266;45.580;-122.680;2022-08-27T13:16:06;4.47;;;2.00;;
32912;SDS011;19266;45.580;-122.680;2022-08-27T13:18:35;3.45;;;1.95;;
32912;SDS011;19266;45.580;-122.680;2022-08-27T13:23:44;4.10;;;2.00;;
32912;SDS011;19266;45.580;-122.680;2022-08-27T13:26:14;4.28;;;1.80;;
32912;SDS011;19266;45.580;-122.680;2022-08-27T13:28:46;6.17;;;2.40;;
32912;SDS011;19266;45.580;-122.680;2022-08-27T13:31:16;4.87;;;2.22;;
32912;SDS011;19266;45.580;-122.680;2022-08-27T13:33:46;3.72;;;2.00;;
32912;SDS011;19266;45.580;-122.680;2022-08-27T13:36:30;4.45;;;2.05;;
32912;SDS011;19266;45.580;-122.680;2022-08-27T13:38:55;7.05;;;2.12;;
32912;SDS011;19266;45.580;-122.680;2022-08-27T13:41:26;5.75;;;2.45;;
32912;SDS011;19266;45.580;-122.680;2022-08-27T13:43:55;3.50;;;2.22;;
32912;SDS011;19266;45.580;-122.680;2022-08-27T13:46:25;7.03;;;2.50;;
32912;SDS011;19266;45.580;-122.680;2022-08-27T13:48:56;5.22;;;2.10;;
32912;SDS011;19266;45.580;-122.680;2022-08-27T13:51:27;5.65;;;2.08;;
32912;SDS011;19266;45.580;-122.680;2022-08-27T13:53:56;6.90;;;2.40;;
32912;SDS011;19266;45.580;-122.680;2022-08-27T13:57:04;5.30;;;2.02;;
32912;SDS011;19266;45.580;-122.680;2022-08-27T13:59:13;6.40;;;2.40;;
32912;SDS011;19266;45.580;-122.680;2022-08-27T14:01:53;5.10;;;1.92;;
32912;SDS011;19266;45.580;-122.680;2022-08-27T14:04:19;6.12;;;2.00;;
32912;SDS011;19266;45.580;-122.680;2022-08-27T14:06:44;5.62;;;2.08;;
32912;SDS011;19266;45.580;-122.680;2022-08-27T14:11:44;5.35;;;2.17;;
32912;SDS011;19266;45.580;-122.680;2022-08-27T14:14:14;4.78;;;2.20;;
32912;SDS011;19266;45.580;-122.680;2022-08-27T14:16:45;8.55;;;2.40;;
32912;SDS011;19266;45.580;-122.680;2022-08-27T14:21:54;5.90;;;2.40;;
32912;SDS011;19266;45.580;-122.680;2022-08-27T14:24:24;6.03;;;2.47;;
32912;SDS011;19266;45.580;-122.680;2022-08-27T14:26:53;4.08;;;2.17;;
32912;SDS011;19266;45.580;-122.680;2022-08-27T14:29:23;5.97;;;2.50;;
32912;SDS011;19266;45.580;-122.680;2022-08-27T14:31:52;6.45;;;2.50;;
32912;SDS011;19266;45.580;-122.680;2022-08-27T14:34:22;4.78;;;2.33;;
32912;SDS011;19266;45.580;-122.680;2022-08-27T14:36:51;5.83;;;2.25;;
32912;SDS011;19266;45.580;-122.680;2022-08-27T14:39:20;9.48;;;2.60;;
32912;SDS011;19266;45.580;-122.680;2022-08-27T14:41:50;6.83;;;2.47;;
32912;SDS011;19266;45.580;-122.680;2022-08-27T14:44:19;5.15;;;2.35;;
32912;SDS011;19266;45.580;-122.680;2022-08-27T14:46:48;5.00;;;2.83;;
32912;SDS011;19266;45.580;-122.680;2022-08-27T14:49:29;4.45;;;2.30;;
32912;SDS011;19266;45.580;-122.680;2022-08-27T14:51:52;5.55;;;2.40;;
32912;SDS011;19266;45.580;-122.680;2022-08-27T14:54:22;6.15;;;2.75;;
32912;SDS011;19266;45.580;-122.680;2022-08-27T14:56:51;8.63;;;2.60;;
32912;SDS011;19266;45.580;-122.680;2022-08-27T14:59:22;6.83;;;2.70;;
32912;SDS011;19266;45.580;-122.680;2022-08-27T15:01:51;6.92;;;2.60;;
32912;SDS011;19266;45.580;-122.680;2022-08-27T15:04:21;4.78;;;2.20;;
32912;SDS011;19266;45.580;-122.680;2022-08-27T15:06:51;6.50;;;2.40;;
32912;SDS011;19266;45.580;-122.680;2022-08-27T15:09:20;5.22;;;2.37;;
32912;SDS011;19266;45.580;-122.680;2022-08-27T15:11:49;4.70;;;2.40;;
32912;SDS011;19266;45.580;-122.680;2022-08-27T15:14:29;6.60;;;2.65;;
32912;SDS011;19266;45.580;-122.680;2022-08-27T15:16:58;7.95;;;2.77;;
32912;SDS011;19266;45.580;-122.680;2022-08-27T15:19:28;7.00;;;2.50;;
32912;SDS011;19266;45.580;-122.680;2022-08-27T15:22:01;8.03;;;2.40;;
32912;SDS011;19266;45.580;-122.680;2022-08-27T15:24:38;8.13;;;2.50;;